Time;durP1;ratioP1;P1;durP2;ratioP2;P2;SDS_P1;SDS_P2;PMS_P1;PMS_P2;Temp;Humidity;BMP_temperature;BMP_pressure;BME280_temperature;BME280_humidity;BME280_pressure;Samples;Min_cycle;Max_cycle;Signal;HPM_P1;HPM_P2
2021/05/29 00:01:07;;;;;;;12.05;9.35;;;9.30;99.90;;;;;;4163956;28;20029;-75
2021/05/29 00:03:08;;;;;;;11.40;9.88;;;9.20;99.90;;;;;;4164285;28;20468;-75
2021/05/29 00:05:09;;;;;;;11.63;9.80;;;9.20;99.90;;;;;;4160397;28;20120;-75
2021/05/29 00:07:11;;;;;;;12.38;9.77;;;9.10;99.90;;;;;;4160234;28;20101;-75
2021/05/29 00:09:12;;;;;;;16.65;9.88;;;9.00;99.90;;;;;;4164571;28;20029;-76
2021/05/29 00:11:13;;;;;;;14.30;9.73;;;9.00;99.90;;;;;;4164199;28;20021;-75
2021/05/29 00:13:14;;;;;;;16.67;11.35;;;8.90;99.90;;;;;;4164277;28;20063;-74
2021/05/29 00:15:14;;;;;;;14.20;10.88;;;9.00;99.90;;;;;;4163255;28;20661;-75
2021/05/29 00:17:18;;;;;;;13.18;10.98;;;9.00;99.90;;;;;;4164903;28;20041;-75
2021/05/29 00:19:18;;;;;;;17.55;11.25;;;8.90;99.90;;;;;;4163848;28;20046;-75
2021/05/29 00:21:19;;;;;;;13.60;11.65;;;8.90;99.90;;;;;;4163136;28;20095;-75
2021/05/29 00:23:20;;;;;;;12.98;10.68;;;8.90;99.90;;;;;;4162859;28;20084;-76
2021/05/29 00:25:20;;;;;;;19.90;13.27;;;8.80;99.90;;;;;;4164117;28;20030;-75
2021/05/29 00:27:21;;;;;;;14.52;12.18;;;8.80;99.90;;;;;;4164236;28;20029;-75
2021/05/29 00:29:22;;;;;;;13.10;10.32;;;8.80;99.90;;;;;;4163844;28;20052;-75
2021/05/29 00:31:22;;;;;;;13.77;10.85;;;8.70;99.90;;;;;;4163886;28;20034;-75
2021/05/29 00:33:23;;;;;;;16.95;11.43;;;8.70;99.90;;;;;;4163270;28;20083;-76
2021/05/29 00:35:24;;;;;;;18.08;12.25;;;8.60;99.90;;;;;;4164797;28;20045;-76
2021/05/29 00:37:24;;;;;;;18.52;12.18;;;8.60;99.90;;;;;;4164316;28;20059;-75
2021/05/29 00:39:25;;;;;;;15.00;11.60;;;8.50;99.90;;;;;;4164639;28;20028;-75
2021/05/29 00:41:26;;;;;;;18.92;12.77;;;8.40;99.90;;;;;;4164440;28;20034;-75
2021/05/29 00:43:26;;;;;;;14.40;11.75;;;8.40;99.90;;;;;;4163939;28;20026;-76
2021/05/29 00:45:27;;;;;;;21.75;11.27;;;8.40;99.90;;;;;;4164019;28;20040;-75
2021/05/29 00:47:29;;;;;;;16.45;11.93;;;8.30;99.90;;;;;;4162460;28;20037;-76
2021/05/29 00:49:30;;;;;;;20.27;11.80;;;8.20;99.90;;;;;;4152104;28;20036;-76
2021/05/29 00:51:30;;;;;;;18.00;12.05;;;8.10;99.90;;;;;;4162980;28;20048;-75
2021/05/29 00:53:33;;;;;;;19.13;12.95;;;8.10;99.90;;;;;;4162291;28;20471;-75
2021/05/29 00:55:34;;;;;;;18.00;12.90;;;8.00;99.90;;;;;;4162211;28;20037;-75
2021/05/29 00:57:41;;;;;;;21.63;13.40;;;7.90;99.90;;;;;;4155106;28;20512;-76
2021/05/29 00:59:42;;;;;;;21.17;13.60;;;7.90;99.90;;;;;;4146385;28;20494;-75
2021/05/29 01:01:43;;;;;;;24.75;13.88;;;7.90;99.90;;;;;;4148792;28;20037;-75
2021/05/29 01:03:44;;;;;;;20.17;14.43;;;7.80;99.90;;;;;;4151356;28;20159;-75
2021/05/29 01:05:46;;;;;;;18.75;13.38;;;7.80;99.90;;;;;;4161714;28;20933;-75
2021/05/29 01:07:48;;;;;;;22.05;14.10;;;7.80;99.90;;;;;;4162795;28;20132;-75
2021/05/29 01:09:49;;;;;;;20.27;14.00;;;7.70;99.90;;;;;;4163385;28;20030;-76
2021/05/29 01:11:51;;;;;;;26.08;15.07;;;7.70;99.90;;;;;;4163085;28;20268;-75
2021/05/29 01:13:57;;;;;;;23.05;14.30;;;7.60;99.90;;;;;;4161865;28;20025;-76
2021/05/29 01:16:07;;;;;;;19.85;13.77;;;7.60;99.90;;;;;;4163335;28;20136;-75
2021/05/29 01:18:12;;;;;;;21.13;14.13;;;7.60;99.90;;;;;;4162965;28;20029;-73
2021/05/29 01:20:14;;;;;;;24.83;14.57;;;7.60;99.90;;;;;;4163294;28;20042;-73
2021/05/29 01:22:34;;;;;;;22.95;13.65;;;7.50;99.90;;;;;;4163357;28;20442;-75
2021/05/29 01:24:35;;;;;;;21.58;13.48;;;7.50;99.90;;;;;;4162129;28;20435;-75
2021/05/29 01:26:36;;;;;;;20.73;13.60;;;7.50;99.90;;;;;;4161298;28;20042;-75
2021/05/29 01:28:37;;;;;;;26.25;15.55;;;7.40;99.90;;;;;;4162757;28;20124;-75
2021/05/29 01:30:50;;;;;;;27.85;15.35;;;7.40;99.90;;;;;;4161880;28;20067;-75
2021/05/29 01:32:50;;;;;;;26.13;15.93;;;7.40;99.90;;;;;;4163001;28;20116;-73
2021/05/29 01:34:51;;;;;;;25.55;15.18;;;7.30;99.90;;;;;;4163224;28;20033;-75
2021/05/29 01:36:51;;;;;;;24.50;15.57;;;7.30;99.90;;;;;;4156479;28;20196;-75
2021/05/29 01:38:53;;;;;;;27.10;15.85;;;7.30;99.90;;;;;;4156582;28;20037;-75
2021/05/29 01:41:05;;;;;;;23.42;15.70;;;7.20;99.90;;;;;;4163275;28;20048;-75
2021/05/29 01:43:10;;;;;;;31.88;16.30;;;7.20;99.90;;;;;;4162541;28;20053;-73
2021/05/29 01:45:12;;;;;;;25.00;16.73;;;7.20;99.90;;;;;;4163007;28;20041;-75
2021/05/29 01:47:13;;;;;;;24.67;15.68;;;7.20;99.90;;;;;;4163211;28;20068;-75
2021/05/29 01:49:13;;;;;;;32.25;16.90;;;7.20;99.90;;;;;;4161343;28;20036;-76
2021/05/29 01:51:16;;;;;;;34.08;17.45;;;7.20;99.90;;;;;;4163329;28;20377;-75
2021/05/29 01:53:20;;;;;;;34.03;17.58;;;7.20;99.90;;;;;;4161453;28;20064;-73
2021/05/29 01:55:23;;;;;;;30.00;15.18;;;7.10;99.90;;;;;;4163375;28;20053;-75
2021/05/29 01:57:23;;;;;;;26.35;15.85;;;7.10;99.90;;;;;;4162736;28;20084;-73
2021/05/29 01:59:24;;;;;;;24.15;15.40;;;7.00;99.90;;;;;;4162130;28;20026;-76
2021/05/29 02:01:24;;;;;;;27.85;16.10;;;7.00;99.90;;;;;;4161403;28;20030;-75
2021/05/29 02:03:25;;;;;;;33.55;17.52;;;7.00;99.90;;;;;;4160669;28;20025;-75
2021/05/29 02:05:28;;;;;;;29.58;17.42;;;7.00;99.90;;;;;;4163046;28;20492;-75
2021/05/29 02:07:29;;;;;;;;;;;7.00;99.90;;;;;;4162866;28;20026;-75
2021/05/29 02:09:30;;;;;;;30.55;15.85;;;6.90;99.90;;;;;;4156939;28;19916;-75
2021/05/29 02:11:30;;;;;;;29.45;16.27;;;6.90;99.90;;;;;;4163217;28;20025;-75
2021/05/29 02:13:34;;;;;;;29.02;15.88;;;6.90;99.90;;;;;;4162571;28;20095;-75
2021/05/29 02:15:37;;;;;;;27.20;17.13;;;6.90;99.90;;;;;;4163109;28;20360;-76
2021/05/29 02:17:38;;;;;;;28.10;17.08;;;6.80;99.90;;;;;;4168440;28;20037;-76
2021/05/29 02:19:39;;;;;;;30.58;16.75;;;6.80;99.90;;;;;;4161489;28;20034;-75
2021/05/29 02:21:40;;;;;;;31.80;17.58;;;6.70;99.90;;;;;;4162916;28;20043;-76
2021/05/29 02:23:50;;;;;;;33.08;18.60;;;6.70;99.90;;;;;;4162893;28;20124;-75
2021/05/29 02:25:53;;;;;;;31.67;18.73;;;6.70;99.90;;;;;;4163012;28;20050;-76
2021/05/29 02:27:54;;;;;;;;;;;6.70;99.90;;;;;;4163176;28;20034;-75
2021/05/29 02:29:55;;;;;;;34.47;17.45;;;6.70;99.90;;;;;;4161624;28;19949;-76
2021/05/29 02:31:56;;;;;;;28.80;17.48;;;6.70;99.90;;;;;;4163137;28;20041;-76
2021/05/29 02:33:56;;;;;;;33.55;16.95;;;6.60;99.90;;;;;;4162093;28;20041;-75
2021/05/29 02:35:57;;;;;;;36.38;18.08;;;6.60;99.90;;;;;;4162331;28;20036;-75
2021/05/29 02:37:58;;;;;;;31.90;17.30;;;6.50;99.90;;;;;;4162127;28;20029;-75
2021/05/29 02:39:59;;;;;;;26.92;16.42;;;6.50;99.90;;;;;;4161251;28;20042;-73
2021/05/29 02:41:59;;;;;;;36.10;19.30;;;6.50;99.90;;;;;;4163286;28;20037;-75
2021/05/29 02:44:00;;;;;;;37.80;19.15;;;6.50;99.90;;;;;;4162749;28;20041;-75
2021/05/29 02:46:01;;;;;;;28.15;15.40;;;6.40;99.90;;;;;;4162969;28;20697;-75
2021/05/29 02:48:02;;;;;;;28.95;16.95;;;6.40;99.90;;;;;;4161745;28;20439;-73
2021/05/29 02:50:04;;;;;;;32.88;17.20;;;6.40;99.90;;;;;;4161750;28;20124;-75
2021/05/29 02:52:05;;;;;;;33.28;17.05;;;6.40;99.90;;;;;;4162580;28;20168;-75
2021/05/29 02:54:06;;;;;;;31.38;17.02;;;6.40;99.90;;;;;;4162416;28;20041;-75
2021/05/29 02:56:07;;;;;;;30.27;16.48;;;6.40;99.90;;;;;;4163544;28;20026;-75
2021/05/29 02:58:07;;;;;;;32.97;17.83;;;6.40;99.90;;;;;;4164448;28;20136;-75
2021/05/29 03:00:10;;;;;;;29.83;16.83;;;6.30;99.90;;;;;;4165571;28;20037;-75
2021/05/29 03:02:11;;;;;;;33.72;18.98;;;6.30;99.90;;;;;;4155078;28;20034;-75
2021/05/29 03:04:12;;;;;;;34.20;16.58;;;6.30;99.90;;;;;;4161840;28;20030;-75
2021/05/29 03:06:13;;;;;;;35.65;17.65;;;6.20;99.90;;;;;;4164155;28;20412;-75
2021/05/29 03:08:16;;;;;;;35.30;17.55;;;6.30;99.90;;;;;;4165133;28;20403;-75
2021/05/29 03:10:18;;;;;;;30.50;18.13;;;6.30;99.90;;;;;;4164803;28;20112;-75
2021/05/29 03:12:19;;;;;;;35.65;18.40;;;6.20;99.90;;;;;;4163692;28;20065;-76
2021/05/29 03:14:19;;;;;;;33.35;19.23;;;6.20;99.90;;;;;;4164529;28;20381;-76
2021/05/29 03:16:20;;;;;;;32.38;18.13;;;6.20;99.90;;;;;;4162569;28;20030;-74
2021/05/29 03:18:21;;;;;;;34.10;18.67;;;6.20;99.90;;;;;;4163079;28;20159;-74
2021/05/29 03:20:25;;;;;;;30.20;17.45;;;6.20;99.90;;;;;;4164827;28;20021;-74
2021/05/29 03:22:26;;;;;;;32.05;16.88;;;6.20;99.90;;;;;;4164707;28;20037;-73
2021/05/29 03:24:27;;;;;;;33.22;17.38;;;6.20;99.90;;;;;;4163249;28;20506;-74
2021/05/29 03:26:27;;;;;;;35.10;19.15;;;6.20;99.90;;;;;;4164375;28;20112;-73
2021/05/29 03:28:28;;;;;;;25.77;16.08;;;6.10;99.90;;;;;;4164212;28;20022;-74
2021/05/29 03:30:29;;;;;;;32.63;17.77;;;6.10;99.90;;;;;;4163219;28;20026;-73
2021/05/29 03:32:30;;;;;;;36.03;18.50;;;6.10;99.90;;;;;;4163014;28;20124;-74
2021/05/29 03:34:31;;;;;;;35.33;17.85;;;6.10;99.90;;;;;;4161167;28;20030;-74
2021/05/29 03:36:32;;;;;;;31.48;18.25;;;6.10;99.90;;;;;;4160454;28;20052;-73
2021/05/29 03:38:33;;;;;;;38.22;17.80;;;6.00;99.90;;;;;;4163016;28;20512;-74
2021/05/29 03:40:34;;;;;;;35.75;18.02;;;6.00;99.90;;;;;;4162880;28;20034;-73
2021/05/29 03:42:34;;;;;;;35.85;18.08;;;6.10;99.90;;;;;;4162609;28;20025;-74
2021/05/29 03:44:35;;;;;;;40.10;19.83;;;6.20;99.90;;;;;;4162927;28;20084;-74
2021/05/29 03:46:35;;;;;;;35.55;19.17;;;6.20;99.90;;;;;;4162959;28;20037;-73
2021/05/29 03:48:36;;;;;;;34.28;19.27;;;6.30;99.90;;;;;;4159924;28;20105;-73
2021/05/29 03:50:39;;;;;;;37.95;18.15;;;6.30;99.90;;;;;;4163272;28;20022;-74
2021/05/29 03:52:41;;;;;;;36.63;18.80;;;6.30;99.90;;;;;;4157667;28;20026;-74
2021/05/29 03:54:42;;;;;;;35.00;19.00;;;6.30;99.90;;;;;;4164139;28;20029;-74
2021/05/29 03:56:43;;;;;;;36.20;19.02;;;6.30;99.90;;;;;;4162834;28;20535;-73
2021/05/29 03:58:43;;;;;;;33.30;17.98;;;6.30;99.90;;;;;;4161460;28;20041;-74
2021/05/29 04:00:44;;;;;;;36.25;20.10;;;6.40;99.90;;;;;;4163360;28;20125;-74
2021/05/29 04:02:45;;;;;;;30.58;18.88;;;6.40;99.90;;;;;;4163248;28;20030;-74
2021/05/29 04:04:46;;;;;;;34.22;20.05;;;6.40;99.90;;;;;;4161711;28;20107;-73
2021/05/29 04:06:47;;;;;;;38.65;20.48;;;6.40;99.90;;;;;;4163521;28;20680;-74
2021/05/29 04:08:48;;;;;;;33.72;18.73;;;6.40;99.90;;;;;;4176494;28;20048;-73
2021/05/29 04:10:49;;;;;;;41.22;19.27;;;6.40;99.90;;;;;;4161822;28;20040;-74
2021/05/29 04:12:50;;;;;;;33.58;18.92;;;6.40;99.90;;;;;;4163016;28;20036;-74
2021/05/29 04:14:51;;;;;;;37.30;20.77;;;6.50;99.90;;;;;;4163864;28;20096;-75
2021/05/29 04:16:52;;;;;;;35.30;19.15;;;6.50;99.90;;;;;;4164040;28;20041;-75
2021/05/29 04:18:53;;;;;;;42.65;21.27;;;6.60;99.90;;;;;;4164087;28;20033;-75
2021/05/29 04:20:53;;;;;;;43.33;20.17;;;6.60;99.90;;;;;;4164176;28;20045;-75
2021/05/29 04:22:55;;;;;;;34.10;19.65;;;6.60;99.90;;;;;;4163500;28;20459;-74
2021/05/29 04:24:55;;;;;;;32.10;19.35;;;6.70;99.90;;;;;;4162255;28;20037;-73
2021/05/29 04:26:56;;;;;;;35.50;19.73;;;6.70;99.90;;;;;;4162783;28;20112;-74
2021/05/29 04:28:57;;;;;;;33.42;19.95;;;6.70;99.90;;;;;;4162279;28;20030;-73
2021/05/29 04:30:57;;;;;;;42.13;21.05;;;6.80;99.90;;;;;;4163242;28;20112;-74
2021/05/29 04:32:58;;;;;;;34.70;20.15;;;6.80;99.90;;;;;;4162693;28;20046;-74
2021/05/29 04:34:59;;;;;;;41.30;22.48;;;6.90;99.90;;;;;;4162867;28;20464;-75
2021/05/29 04:37:00;;;;;;;45.72;23.05;;;6.90;99.90;;;;;;4162953;28;20033;-74
2021/05/29 04:39:01;;;;;;;35.22;20.70;;;6.90;99.90;;;;;;4162683;28;20029;-74
2021/05/29 04:41:01;;;;;;;35.45;21.65;;;6.90;99.90;;;;;;4161658;28;20515;-75
2021/05/29 04:43:02;;;;;;;35.80;20.58;;;7.00;99.90;;;;;;4162870;28;20025;-74
2021/05/29 04:45:05;;;;;;;40.30;21.80;;;7.00;99.90;;;;;;4162865;28;20041;-74
2021/05/29 04:47:06;;;;;;;38.28;20.52;;;7.10;99.90;;;;;;4162855;28;20120;-74
2021/05/29 04:49:07;;;;;;;34.55;20.83;;;7.20;99.90;;;;;;4162184;28;20028;-74
2021/05/29 04:51:16;;;;;;;47.22;21.67;;;7.20;99.90;;;;;;4158651;28;20017;-74
2021/05/29 04:53:17;;;;;;;36.22;19.40;;;7.30;99.90;;;;;;4162534;28;20025;-74
2021/05/29 04:55:21;;;;;;;35.63;19.85;;;7.40;99.90;;;;;;4162888;28;20037;-74
2021/05/29 04:57:21;;;;;;;40.85;21.10;;;7.40;99.90;;;;;;4146056;28;20088;-74
2021/05/29 04:59:22;;;;;;;40.78;21.45;;;7.50;99.90;;;;;;4151034;28;20026;-74
2021/05/29 05:01:23;;;;;;;47.42;23.08;;;7.70;99.90;;;;;;4160428;28;20038;-74
2021/05/29 05:03:24;;;;;;;41.15;22.63;;;7.90;99.90;;;;;;4161610;28;20481;-74
2021/05/29 05:05:25;;;;;;;40.80;23.23;;;8.00;99.90;;;;;;4167712;28;20046;-74
2021/05/29 05:07:26;;;;;;;38.47;21.55;;;8.10;99.90;;;;;;4162214;28;20030;-74
2021/05/29 05:09:27;;;;;;;37.53;21.73;;;8.20;99.90;;;;;;4162548;28;20036;-74
2021/05/29 05:11:28;;;;;;;44.97;23.02;;;8.30;99.90;;;;;;4158569;28;20432;-74
2021/05/29 05:13:29;;;;;;;40.50;23.17;;;8.40;99.90;;;;;;4162699;28;20480;-74
2021/05/29 05:15:30;;;;;;;40.90;21.95;;;8.50;99.90;;;;;;4162528;28;20044;-74
2021/05/29 05:17:31;;;;;;;42.28;22.40;;;8.60;99.90;;;;;;4162243;28;20476;-74
2021/05/29 05:19:31;;;;;;;46.13;23.20;;;8.70;99.90;;;;;;4159396;28;20033;-74
2021/05/29 05:21:32;;;;;;;35.08;22.35;;;8.70;99.90;;;;;;4160807;28;20424;-74
2021/05/29 05:23:33;;;;;;;40.40;23.08;;;8.80;99.90;;;;;;4159665;28;20057;-74
2021/05/29 05:25:34;;;;;;;39.25;23.23;;;8.80;99.90;;;;;;4162227;28;20628;-74
2021/05/29 05:27:35;;;;;;;41.85;23.20;;;8.90;99.90;;;;;;4162327;28;20061;-74
2021/05/29 05:29:35;;;;;;;37.55;22.05;;;8.90;99.90;;;;;;4161849;28;20049;-74
2021/05/29 05:31:36;;;;;;;42.38;21.73;;;9.00;99.90;;;;;;4162374;28;20029;-74
2021/05/29 05:33:43;;;;;;;39.35;22.17;;;9.00;99.90;;;;;;4156106;28;20028;-74
2021/05/29 05:35:43;;;;;;;38.55;22.30;;;9.10;99.90;;;;;;4151608;28;20040;-74
2021/05/29 05:37:45;;;;;;;40.58;23.08;;;9.10;99.90;;;;;;4160147;28;20083;-74
2021/05/29 05:39:46;;;;;;;39.45;22.33;;;9.10;99.90;;;;;;4162368;28;20041;-74
2021/05/29 05:41:47;;;;;;;39.28;22.58;;;9.20;99.90;;;;;;4150798;28;20032;-74
2021/05/29 05:43:49;;;;;;;42.72;23.13;;;9.20;99.90;;;;;;4162211;28;20040;-75
2021/05/29 05:45:50;;;;;;;37.70;23.67;;;9.30;99.90;;;;;;4161335;28;20034;-75
2021/05/29 05:47:50;;;;;;;43.88;23.08;;;9.40;99.90;;;;;;4175083;28;20119;-74
2021/05/29 05:49:51;;;;;;;37.03;21.92;;;9.50;99.90;;;;;;4153663;28;20030;-74
2021/05/29 05:51:52;;;;;;;38.25;23.20;;;9.50;99.90;;;;;;4159270;28;20034;-74
2021/05/29 05:53:53;;;;;;;33.65;22.13;;;9.60;99.90;;;;;;4177157;28;20128;-74
2021/05/29 05:55:59;;;;;;;35.20;22.42;;;9.70;99.90;;;;;;4162511;28;20117;-75
2021/05/29 05:58:00;;;;;;;35.25;22.30;;;9.80;99.90;;;;;;4162040;28;20125;-75
2021/05/29 06:00:03;;;;;;;37.35;23.95;;;9.80;99.90;;;;;;4161704;28;20492;-75
2021/05/29 06:02:04;;;;;;;36.30;22.05;;;9.90;99.90;;;;;;4159870;28;20033;-75
2021/05/29 06:04:05;;;;;;;31.50;21.65;;;10.00;99.90;;;;;;4171247;28;20587;-74
2021/05/29 06:06:05;;;;;;;38.90;23.40;;;10.10;99.90;;;;;;4162269;28;20037;-75
2021/05/29 06:08:06;;;;;;;39.42;23.83;;;10.20;99.90;;;;;;4158874;28;20511;-74
2021/05/29 06:10:08;;;;;;;49.75;31.15;;;10.30;99.90;;;;;;4162067;28;20429;-74
2021/05/29 06:12:09;;;;;;;40.35;26.10;;;10.30;99.90;;;;;;4159789;28;20034;-75
2021/05/29 06:20:50;;;;;;;35.30;24.83;;;10.90;99.90;;;;;;4162467;28;21554;-75
2021/05/29 06:22:51;;;;;;;38.47;24.88;;;10.90;99.90;;;;;;4162074;28;20037;-75
2021/05/29 06:24:51;;;;;;;40.45;25.52;;;11.10;99.90;;;;;;4162317;28;20097;-75
2021/05/29 06:26:52;;;;;;;36.90;25.20;;;11.20;99.90;;;;;;4161533;28;20048;-74
2021/05/29 06:28:53;;;;;;;35.70;25.08;;;11.20;99.90;;;;;;4160203;28;20053;-75
2021/05/29 06:30:54;;;;;;;36.60;25.38;;;11.20;99.90;;;;;;4179502;28;20037;-75
2021/05/29 06:32:55;;;;;;;40.05;25.48;;;11.30;99.90;;;;;;4163954;28;20064;-75
2021/05/29 06:34:55;;;;;;;34.35;23.80;;;11.40;99.90;;;;;;4164343;28;20053;-74
2021/05/29 06:36:56;;;;;;;35.22;23.98;;;11.50;99.90;;;;;;4164541;28;20029;-74
2021/05/29 06:38:58;;;;;;;33.67;23.88;;;11.50;99.90;;;;;;4161743;28;20126;-74
2021/05/29 06:40:58;;;;;;;32.88;24.70;;;11.60;99.90;;;;;;4162985;28;20030;-74
2021/05/29 06:42:59;;;;;;;33.65;25.17;;;11.70;99.90;;;;;;4161522;28;20053;-75
2021/05/29 06:45:00;;;;;;;32.08;24.58;;;11.80;99.90;;;;;;4163236;28;20169;-74
2021/05/29 06:47:01;;;;;;;31.65;23.63;;;11.90;99.90;;;;;;4161523;28;20049;-74
2021/05/29 06:49:03;;;;;;;36.55;24.95;;;12.00;99.90;;;;;;4163945;28;20052;-74
2021/05/29 06:51:04;;;;;;;35.72;24.10;;;12.10;99.90;;;;;;4164059;28;20021;-75
2021/05/29 06:53:10;;;;;;;32.63;24.15;;;12.10;99.90;;;;;;4164194;28;20026;-75
2021/05/29 06:59:50;;;;;;;28.60;22.60;;;12.40;99.90;;;;;;4163147;28;20052;-75
2021/05/29 07:01:51;;;;;;;33.78;23.30;;;12.40;99.90;;;;;;4163450;28;20041;-74
2021/05/29 07:03:53;;;;;;;31.40;23.88;;;12.40;99.90;;;;;;4164566;28;20026;-75
2021/05/29 07:05:54;;;;;;;29.52;22.25;;;12.50;99.90;;;;;;4162583;28;20128;-75
2021/05/29 07:07:55;;;;;;;30.17;21.55;;;12.60;99.90;;;;;;4163694;28;20026;-75
2021/05/29 07:09:55;;;;;;;28.73;22.60;;;12.70;99.90;;;;;;4164100;28;20033;-75
2021/05/29 07:11:56;;;;;;;27.42;22.05;;;12.80;99.90;;;;;;4162493;28;20130;-75
2021/05/29 07:13:56;;;;;;;38.92;22.92;;;12.90;99.90;;;;;;4161367;28;20360;-75
2021/05/29 07:15:58;;;;;;;29.70;22.17;;;13.00;99.90;;;;;;4163815;28;20026;-74
2021/05/29 07:18:04;;;;;;;30.85;22.08;;;13.10;99.90;;;;;;4162494;28;20484;-75
2021/05/29 07:20:05;;;;;;;27.05;22.05;;;13.20;99.90;;;;;;4162663;28;20109;-75
2021/05/29 07:22:06;;;;;;;26.27;21.80;;;13.30;99.90;;;;;;4162800;28;20036;-75
2021/05/29 07:24:07;;;;;;;30.70;20.08;;;13.40;99.90;;;;;;4162326;28;20025;-74
2021/05/29 07:26:08;;;;;;;27.30;19.70;;;13.60;99.90;;;;;;4162736;28;20136;-75
2021/05/29 07:28:09;;;;;;;24.70;19.75;;;13.60;99.90;;;;;;4163604;28;20451;-75
2021/05/29 07:30:10;;;;;;;22.02;19.10;;;13.70;99.90;;;;;;4162406;28;20026;-74
2021/05/29 07:32:10;;;;;;;23.42;17.75;;;13.80;99.90;;;;;;4162656;28;20038;-75
2021/05/29 07:34:11;;;;;;;28.70;19.63;;;14.00;99.90;;;;;;4161177;28;20509;-75
2021/05/29 07:36:12;;;;;;;24.05;16.95;;;14.10;99.90;;;;;;4161344;28;20026;-74
2021/05/29 07:38:13;;;;;;;22.77;18.88;;;14.20;99.90;;;;;;4162285;28;20024;-74
2021/05/29 07:40:15;;;;;;;19.70;16.67;;;14.30;99.90;;;;;;4160100;28;20079;-75
2021/05/29 07:42:15;;;;;;;25.40;17.88;;;14.30;99.90;;;;;;4160119;28;20034;-75
2021/05/29 07:44:16;;;;;;;19.73;16.38;;;14.40;99.90;;;;;;4161235;28;20037;-74
2021/05/29 07:46:18;;;;;;;20.25;16.73;;;14.60;99.90;;;;;;4162606;28;20447;-75
2021/05/29 07:48:19;;;;;;;21.80;16.00;;;14.80;99.90;;;;;;4162309;28;20056;-76
2021/05/29 07:50:20;;;;;;;19.13;16.92;;;14.90;99.90;;;;;;4160450;28;20272;-75
2021/05/29 07:52:20;;;;;;;22.27;16.52;;;15.00;99.90;;;;;;4162762;28;20068;-75
2021/05/29 07:54:21;;;;;;;18.35;15.40;;;15.00;99.90;;;;;;4163440;28;20060;-75
2021/05/29 07:56:22;;;;;;;17.40;14.57;;;15.10;99.90;;;;;;4164529;28;20080;-76
2021/05/29 07:58:23;;;;;;;19.17;15.63;;;15.10;99.90;;;;;;4164242;28;20048;-75
2021/05/29 08:00:26;;;;;;;16.33;13.88;;;15.20;99.90;;;;;;4164135;28;20029;-75
2021/05/29 08:02:29;;;;;;;18.75;14.43;;;15.50;99.90;;;;;;4163841;28;20033;-75
2021/05/29 08:04:30;;;;;;;16.02;14.07;;;15.70;99.90;;;;;;4162915;28;20041;-75
2021/05/29 08:06:31;;;;;;;14.55;13.02;;;15.70;99.90;;;;;;4162633;28;20033;-75
2021/05/29 08:08:32;;;;;;;18.60;12.80;;;15.90;99.90;;;;;;4162614;28;20033;-75
2021/05/29 08:10:33;;;;;;;16.35;12.13;;;15.80;99.90;;;;;;4164014;28;20061;-75
2021/05/29 08:12:33;;;;;;;15.45;13.50;;;15.80;99.90;;;;;;4163186;28;20060;-75
2021/05/29 08:14:35;;;;;;;18.20;13.15;;;15.90;99.90;;;;;;4162217;28;20053;-75
2021/05/29 08:16:36;;;;;;;16.08;14.02;;;16.00;99.90;;;;;;4163600;28;20037;-75
2021/05/29 08:18:37;;;;;;;15.70;13.63;;;16.20;99.90;;;;;;4164130;28;20048;-74
2021/05/29 08:20:37;;;;;;;20.88;15.57;;;16.40;99.90;;;;;;4162227;28;20030;-74
2021/05/29 08:22:38;;;;;;;18.42;13.18;;;16.60;99.90;;;;;;4162675;28;20030;-74
2021/05/29 08:24:39;;;;;;;15.63;13.23;;;16.70;99.90;;;;;;4163537;28;20065;-74
2021/05/29 08:26:40;;;;;;;15.25;13.35;;;17.00;99.90;;;;;;4163736;28;20103;-75
2021/05/29 08:28:44;;;;;;;16.80;14.90;;;17.10;99.90;;;;;;4163043;28;20025;-75
2021/05/29 08:30:44;;;;;;;18.33;13.50;;;16.70;99.90;;;;;;4156434;28;20060;-75
2021/05/29 08:32:45;;;;;;;19.17;13.63;;;16.50;99.90;;;;;;4146399;28;20540;-74
2021/05/29 08:34:46;;;;;;;18.40;13.07;;;16.70;99.90;;;;;;4146862;28;20132;-74
2021/05/29 08:36:46;;;;;;;16.08;13.57;;;16.80;99.90;;;;;;4147039;28;20037;-74
2021/05/29 08:38:48;;;;;;;14.70;12.95;;;16.60;99.90;;;;;;4145723;28;20119;-74
2021/05/29 08:40:49;;;;;;;19.05;13.07;;;16.40;99.90;;;;;;4150878;28;20022;-74
2021/05/29 08:42:50;;;;;;;14.63;12.45;;;16.40;99.90;;;;;;4154248;28;20034;-74
2021/05/29 08:44:51;;;;;;;15.13;13.07;;;16.40;99.90;;;;;;4161324;28;20037;-73
2021/05/29 08:46:52;;;;;;;22.85;12.93;;;16.70;99.90;;;;;;4163229;28;20041;-74
2021/05/29 08:48:52;;;;;;;17.73;12.55;;;17.00;99.90;;;;;;4162902;28;20029;-74
2021/05/29 08:53:12;;;;;;;13.95;12.25;;;17.20;99.90;;;;;;4158747;28;20056;-74
2021/05/29 08:55:16;;;;;;;19.42;15.27;;;17.30;99.90;;;;;;4160759;28;20034;-74
2021/05/29 08:57:17;;;;;;;14.68;13.13;;;17.60;99.90;;;;;;4162885;28;20089;-75
2021/05/29 08:59:17;;;;;;;18.48;13.93;;;17.90;99.90;;;;;;4161436;28;20357;-73
2021/05/29 09:01:20;;;;;;;16.45;12.75;;;18.10;99.90;;;;;;4161866;28;20065;-74
2021/05/29 09:03:21;;;;;;;14.75;12.23;;;18.00;99.90;;;;;;4160161;28;20048;-74
2021/05/29 09:05:37;;;;;;;14.98;13.13;;;18.00;99.90;;;;;;4162933;28;20450;-74
2021/05/29 09:07:38;;;;;;;14.27;12.63;;;18.10;99.90;;;;;;4162650;28;20041;-74
2021/05/29 09:09:38;;;;;;;14.43;12.90;;;18.00;99.90;;;;;;4161540;28;20084;-74
2021/05/29 09:13:47;;;;;;;16.63;13.27;;;18.20;99.90;;;;;;4159967;28;20132;-75
2021/05/29 09:16:02;;;;;;;19.17;16.70;;;18.30;99.90;;;;;;4162713;28;20037;-74
2021/05/29 09:18:04;;;;;;;15.57;12.55;;;18.10;99.90;;;;;;4159662;28;20060;-73
2021/05/29 09:20:11;;;;;;;14.85;12.32;;;18.10;99.90;;;;;;4162175;28;20044;-74
2021/05/29 09:22:12;;;;;;;18.20;12.73;;;18.50;99.90;;;;;;4162806;28;20071;-74
2021/05/29 09:24:15;;;;;;;15.90;12.60;;;19.00;99.90;;;;;;4160109;28;20048;-74
2021/05/29 09:26:16;;;;;;;16.73;13.20;;;19.20;99.90;;;;;;4161851;28;20468;-74
2021/05/29 09:28:24;;;;;;;15.32;13.75;;;19.00;99.90;;;;;;4160670;28;20554;-74
2021/05/29 09:30:50;;;;;;;15.20;13.07;;;19.00;99.90;;;;;;4147433;28;20068;-75
2021/05/29 09:32:50;;;;;;;15.40;12.73;;;19.20;99.90;;;;;;4161446;28;20077;-74
2021/05/29 09:34:53;;;;;;;14.00;12.23;;;19.50;99.90;;;;;;4162901;28;20030;-75
2021/05/29 09:37:02;;;;;;;14.63;12.20;;;19.40;99.90;;;;;;4161377;28;20026;-74
2021/05/29 09:39:07;;;;;;;14.98;12.25;;;19.60;99.90;;;;;;4147152;28;20168;-74
2021/05/29 09:41:22;;;;;;;16.25;12.75;;;20.20;99.90;;;;;;4147754;28;20057;-75
2021/05/29 09:43:23;;;;;;;13.82;12.43;;;20.60;99.90;;;;;;4158571;28;20389;-75
2021/05/29 09:45:27;;;;;;;18.48;15.00;;;21.00;99.90;;;;;;4148275;28;20033;-75
2021/05/29 09:47:28;;;;;;;16.02;14.18;;;21.10;99.90;;;;;;4146264;28;20038;-75
2021/05/29 09:50:05;;;;;;;16.38;13.82;;;20.90;99.90;;;;;;4150710;28;20110;-75
2021/05/29 09:52:35;;;;;;;14.95;13.13;;;20.50;99.90;;;;;;4128944;28;20041;-75
2021/05/29 09:54:36;;;;;;;16.42;13.57;;;20.30;99.90;;;;;;4146226;28;20058;-75
2021/05/29 09:56:43;;;;;;;13.57;12.20;;;20.30;99.90;;;;;;4146271;28;20374;-75
2021/05/29 09:58:57;;;;;;;14.82;12.88;;;20.80;99.90;;;;;;4146024;28;20050;-75
2021/05/29 10:00:57;;;;;;;;;;;21.00;99.90;;;;;;4146110;28;20036;-75
2021/05/29 10:03:03;;;;;;;13.75;11.95;;;21.10;99.90;;;;;;4147225;28;19915;-75
2021/05/29 10:05:28;;;;;;;27.58;22.70;;;21.10;99.90;;;;;;4157100;28;20049;-74
2021/05/29 10:07:41;;;;;;;14.05;12.30;;;21.10;99.90;;;;;;4157979;28;20050;-74
2021/05/29 10:09:42;;;;;;;15.93;12.77;;;21.80;99.90;;;;;;4162839;28;20049;-74
2021/05/29 10:11:43;;;;;;;18.50;12.73;;;22.20;99.90;;;;;;4162771;28;20066;-74
2021/05/29 10:13:44;;;;;;;14.13;12.38;;;22.30;99.90;;;;;;4163470;28;20400;-74
2021/05/29 10:15:44;;;;;;;15.32;11.88;;;21.70;99.90;;;;;;4162122;28;20053;-74
2021/05/29 10:17:46;;;;;;;20.40;17.52;;;21.50;99.90;;;;;;4161831;28;20101;-74
2021/05/29 10:19:48;;;;;;;15.23;13.73;;;21.40;99.90;;;;;;4161838;28;20025;-74
2021/05/29 10:21:50;;;;;;;24.65;17.90;;;21.60;99.90;;;;;;4152503;28;20035;-74
2021/05/29 10:23:52;;;;;;;12.98;11.10;;;22.30;99.90;;;;;;4161713;28;20408;-74
2021/05/29 10:25:54;;;;;;;14.18;11.25;;;22.60;99.90;;;;;;4163719;28;20029;-74
2021/05/29 10:27:56;;;;;;;18.87;15.23;;;21.70;99.90;;;;;;4161595;28;20052;-74
2021/05/29 10:29:59;;;;;;;18.92;15.70;;;21.10;99.90;;;;;;4164150;28;20268;-74
2021/05/29 10:32:18;;;;;;;16.95;15.10;;;20.70;99.90;;;;;;4153702;28;20025;-75
2021/05/29 10:34:52;;;;;;;18.38;15.82;;;20.50;99.90;;;;;;4165921;28;20673;-74
2021/05/29 10:36:56;;;;;;;18.58;16.50;;;20.50;99.90;;;;;;4152438;28;20396;-74
2021/05/29 10:38:56;;;;;;;18.10;16.20;;;21.00;99.90;;;;;;4152740;28;20029;-74
2021/05/29 10:40:57;;;;;;;19.08;16.35;;;21.00;99.90;;;;;;4160808;28;20036;-74